createdAt,value
2019-04-23T00:02:25.119Z,96433.00
2019-04-23T00:04:55.583Z,96441.00
2019-04-23T00:07:46.696Z,96428.00
2019-04-23T00:10:09.607Z,96439.00
2019-04-23T00:15:07.403Z,96441.00
2019-04-23T00:17:42.100Z,96438.00
2019-04-23T00:20:14.498Z,96435.00
2019-04-23T00:23:00.144Z,96423.00
2019-04-23T00:30:43.556Z,96430.00
2019-04-23T00:33:12.038Z,96426.00
2019-04-23T00:35:38.667Z,96431.00
2019-04-23T00:40:46.779Z,96438.00
2019-04-23T00:43:15.535Z,96418.00
2019-04-23T00:45:47.344Z,96416.00
2019-04-23T00:48:24.143Z,96418.00
2019-04-23T00:50:52.633Z,96426.00
2019-04-23T00:53:19.472Z,96413.00
2019-04-23T00:56:29.667Z,96414.00
2019-04-23T00:58:43.285Z,96405.00
2019-04-23T01:01:11.292Z,96394.00
2019-04-23T01:03:42.223Z,96387.00
2019-04-23T01:06:21.140Z,96381.00
2019-04-23T01:08:44.168Z,96386.00
2019-04-23T01:11:16.769Z,96388.00
2019-04-23T01:14:01.123Z,96392.00
2019-04-23T01:16:15.027Z,96387.00
2019-04-23T01:19:08.698Z,96391.00
2019-04-23T01:21:28.821Z,96375.00
2019-04-23T01:24:06.216Z,96387.00
2019-04-23T01:27:01.691Z,96390.00
2019-04-23T01:29:35.857Z,96389.00
2019-04-23T01:31:57.442Z,96378.00
2019-04-23T01:37:16.017Z,96378.00
2019-04-23T01:39:36.485Z,96365.00
2019-04-23T01:42:14.518Z,96376.00
2019-04-23T01:44:42.354Z,96367.00
2019-04-23T01:47:07.736Z,96377.00
2019-04-23T01:49:48.357Z,96359.00
2019-04-23T01:52:18.115Z,96375.00
2019-04-23T02:15:11.516Z,96332.00
2019-04-23T02:17:50.212Z,96329.00
2019-04-23T02:20:16.122Z,96333.00
2019-04-23T02:23:12.789Z,96318.00
2019-04-23T02:28:09.352Z,96303.00
2019-04-23T02:30:58.153Z,96316.00
2019-04-23T02:33:34.447Z,96300.00
2019-04-23T02:38:31.235Z,96301.00
2019-04-23T02:41:04.333Z,96295.00
2019-04-23T02:43:28.198Z,96295.00
2019-04-23T02:48:41.206Z,96291.00
2019-04-23T02:51:10.879Z,96283.00
2019-04-23T02:53:36.065Z,96289.00
2019-04-23T02:56:21.562Z,96293.00
2019-04-23T02:58:34.469Z,96276.00
2019-04-23T03:03:42.817Z,96286.00
2019-04-23T03:06:05.799Z,96282.00
2019-04-23T03:14:00.409Z,96275.00
2019-04-23T03:19:02.625Z,96257.00
2019-04-23T03:21:47.353Z,96250.00
2019-04-23T03:27:17.187Z,96249.00
2019-04-23T03:40:04.590Z,96244.00
2019-04-23T03:42:47.633Z,96252.00
2019-04-23T03:45:25.622Z,96248.00
2019-04-23T03:47:37.493Z,96247.00
2019-04-23T03:55:14.605Z,96246.00
2019-04-23T03:57:52.232Z,96239.00
2019-04-23T04:00:37.461Z,96182.00
2019-04-23T04:03:11.229Z,96229.00
2019-04-23T04:05:42.425Z,96233.00
2019-04-23T04:08:13.761Z,96241.00
2019-04-23T04:10:52.379Z,96242.00
2019-04-23T04:13:19.949Z,96240.00
2019-04-23T04:18:30.925Z,96239.00
2019-04-23T04:21:02.780Z,96230.00
2019-04-23T04:25:56.865Z,96240.00
2019-04-23T04:28:28.834Z,96239.00
2019-04-23T04:33:46.986Z,96232.00
2019-04-23T04:36:07.850Z,96228.00
2019-04-23T04:38:42.513Z,96233.00
2019-04-23T04:41:03.798Z,96228.00
2019-04-23T04:46:12.762Z,96220.00
2019-04-23T04:56:16.066Z,96228.00
2019-04-23T04:58:46.702Z,96216.00
2019-04-23T05:03:32.730Z,96219.00
2019-04-23T05:08:48.924Z,96219.00
2019-04-23T05:11:45.322Z,96229.00
2019-04-23T05:16:19.648Z,96210.00
2019-04-23T05:18:55.270Z,96205.00
2019-04-23T05:21:33.163Z,96200.00
2019-04-23T05:23:52.418Z,96196.00
2019-04-23T05:41:42.978Z,96184.00
2019-04-23T05:44:02.526Z,96189.00
2019-04-23T05:46:33.350Z,96188.00
2019-04-23T05:49:09.374Z,96172.00
2019-04-23T05:51:49.155Z,96183.00
2019-04-23T05:54:09.989Z,96185.00
2019-04-23T05:56:54.114Z,96171.00
2019-04-23T06:04:17.631Z,96173.00
2019-04-23T06:06:55.773Z,96169.00
2019-04-23T06:09:14.243Z,96169.00
2019-04-23T06:11:55.508Z,96182.00
2019-04-23T06:24:27.370Z,96147.00
2019-04-23T06:26:54.365Z,96149.00
2019-04-23T06:29:30.666Z,96151.00
2019-04-23T06:34:38.235Z,96156.00
2019-04-23T06:39:31.313Z,96132.00
2019-04-23T06:44:37.754Z,96142.00
2019-04-23T06:47:16.657Z,96133.00
2019-04-23T06:49:37.257Z,96135.00
2019-04-23T06:52:17.573Z,96129.00
2019-04-23T06:54:42.442Z,96140.00
2019-04-23T06:59:39.584Z,96135.00
2019-04-23T07:04:49.844Z,96127.00
2019-04-23T07:09:40.127Z,96124.00
2019-04-23T07:12:14.988Z,96125.00
2019-04-23T07:14:54.328Z,96114.00
2019-04-23T07:17:13.377Z,96117.00
2019-04-23T07:19:48.107Z,96112.00
2019-04-23T07:22:21.560Z,96108.00
2019-04-23T07:24:58.023Z,96110.00
2019-04-23T07:27:24.689Z,96117.00
2019-04-23T07:32:23.009Z,96098.00
2019-04-23T07:35:00.946Z,96096.00
2019-04-23T07:37:34.357Z,96084.00
2019-04-23T07:40:27.567Z,96090.00
2019-04-23T07:45:47.595Z,96069.00
2019-04-23T07:48:16.445Z,96070.00
2019-04-23T07:50:49.408Z,96066.00
2019-04-23T07:53:16.998Z,96064.00
2019-04-23T08:01:07.012Z,96057.00
2019-04-23T08:03:27.374Z,96057.00
2019-04-23T08:05:54.421Z,96060.00
2019-04-23T08:08:37.843Z,96057.00
2019-04-23T08:11:30.016Z,96044.00
2019-04-23T08:14:05.194Z,96037.00
2019-04-23T08:18:55.702Z,96040.00
2019-04-23T08:21:19.239Z,96037.00
2019-04-23T08:26:33.697Z,96043.00
2019-04-23T08:29:07.792Z,96044.00
2019-04-23T08:31:43.163Z,96044.00
2019-04-23T08:36:51.022Z,96037.00
2019-04-23T08:39:21.586Z,96039.00
2019-04-23T08:41:57.757Z,96027.00
2019-04-23T08:47:10.805Z,96021.00
2019-04-23T08:49:35.843Z,96030.00
2019-04-23T08:54:46.477Z,96026.00
2019-04-23T08:57:08.722Z,96016.00
2019-04-23T08:59:38.777Z,96022.00
2019-04-23T09:04:43.561Z,96018.00
2019-04-23T09:07:13.374Z,95999.00
2019-04-23T09:09:48.056Z,96012.00
2019-04-23T09:12:07.038Z,96008.00
2019-04-23T09:14:42.121Z,96001.00
2019-04-23T09:17:24.758Z,95993.00
2019-04-23T09:20:03.582Z,95993.00
2019-04-23T09:22:22.939Z,95995.00
2019-04-23T09:24:48.516Z,95975.00
2019-04-23T09:27:34.714Z,95985.00
2019-04-23T09:29:55.038Z,95978.00
2019-04-23T09:32:39.484Z,95982.00
2019-04-23T09:43:08.686Z,95945.00
2019-04-23T09:48:11.920Z,95937.00
2019-04-23T09:50:49.373Z,95948.00
2019-04-23T09:53:26.910Z,95931.00
2019-04-23T09:55:43.703Z,95923.00
2019-04-23T09:58:15.451Z,95928.00
2019-04-23T10:01:20.778Z,95943.00
2019-04-23T10:03:33.964Z,95937.00
2019-04-23T10:05:59.746Z,95937.00
2019-04-23T10:08:27.955Z,95947.00
2019-04-23T10:10:53.301Z,95946.00
2019-04-23T10:13:24.182Z,95930.00
2019-04-23T10:15:55.523Z,95944.00
2019-04-23T10:18:25.093Z,95934.00
2019-04-23T10:20:54.567Z,95937.00
2019-04-23T10:23:25.162Z,95924.00
2019-04-23T10:25:54.486Z,95927.00
2019-04-23T10:28:42.269Z,95933.00
2019-04-23T10:31:12.611Z,95935.00
2019-04-23T10:33:42.261Z,95920.00
2019-04-23T10:36:19.118Z,95938.00
2019-04-23T10:38:52.617Z,95926.00
2019-04-23T10:41:16.213Z,95928.00
2019-04-23T10:43:50.342Z,95925.00
2019-04-23T10:46:38.054Z,95931.00
2019-04-23T10:51:59.861Z,95918.00
2019-04-23T10:54:34.255Z,95919.00
2019-04-23T11:02:35.004Z,95912.00
2019-04-23T11:04:53.693Z,95921.00
2019-04-23T11:12:37.123Z,95938.00
2019-04-23T11:15:09.250Z,95929.00
2019-04-23T11:17:38.478Z,95925.00
2019-04-23T11:25:15.929Z,95918.00
2019-04-23T11:30:19.105Z,95925.00
2019-04-23T11:32:53.798Z,95927.00
2019-04-23T11:38:09.120Z,95928.00
2019-04-23T11:43:06.146Z,95917.00
2019-04-23T11:45:36.856Z,95916.00
2019-04-23T11:52:56.469Z,95921.00
2019-04-23T11:55:40.792Z,95944.00
2019-04-23T12:00:44.957Z,95942.00
2019-04-23T12:03:02.662Z,95931.00
2019-04-23T12:06:09.488Z,95931.00
2019-04-23T12:11:41.048Z,95928.00
2019-04-23T12:14:02.552Z,95943.00
2019-04-23T12:16:31.811Z,95934.00
2019-04-23T12:19:24.500Z,95932.00
2019-04-23T12:21:41.676Z,95926.00
2019-04-23T12:24:15.672Z,95929.00
2019-04-23T12:26:45.540Z,95928.00
2019-04-23T12:29:13.979Z,95925.00
2019-04-23T12:31:40.100Z,95939.00
2019-04-23T12:34:07.086Z,95931.00
2019-04-23T12:39:21.864Z,95927.00
2019-04-23T12:41:51.138Z,95929.00
2019-04-23T12:44:22.468Z,95919.00
2019-04-23T12:46:57.551Z,95924.00
2019-04-23T12:49:44.019Z,95922.00
2019-04-23T12:51:55.969Z,95918.00
2019-04-23T12:54:47.093Z,95912.00
2019-04-23T12:57:04.801Z,95916.00
2019-04-23T12:59:30.516Z,95906.00
2019-04-23T13:02:05.323Z,95904.00
2019-04-23T13:04:42.218Z,95902.00
2019-04-23T13:07:11.335Z,95904.00
2019-04-23T13:09:46.028Z,95901.00
2019-04-23T13:12:20.301Z,95900.00
2019-04-23T13:14:49.725Z,95900.00
2019-04-23T13:17:32.983Z,95891.00
2019-04-23T13:22:24.190Z,95895.00
2019-04-23T13:24:54.256Z,95897.00
2019-04-23T13:27:46.637Z,95889.00
2019-04-23T13:30:17.086Z,95887.00
2019-04-23T13:32:50.037Z,95881.00
2019-04-23T13:35:29.986Z,95883.00
2019-04-23T13:37:54.488Z,95887.00
2019-04-23T13:40:24.395Z,95874.00
2019-04-23T13:42:57.272Z,95877.00
2019-04-23T13:45:49.841Z,95876.00
2019-04-23T13:48:06.122Z,95876.00
2019-04-23T13:50:38.520Z,95872.00
2019-04-23T13:55:24.868Z,95878.00
2019-04-23T14:00:45.166Z,95871.00
2019-04-23T14:02:56.048Z,95874.00
2019-04-23T14:05:49.458Z,95864.00
2019-04-23T14:08:33.625Z,95858.00
2019-04-23T14:10:53.240Z,95861.00
2019-04-23T14:13:37.343Z,95872.00
2019-04-23T14:16:04.237Z,95862.00
2019-04-23T14:20:55.386Z,95850.00
2019-04-23T14:23:41.158Z,95849.00
2019-04-23T14:28:34.310Z,95851.00
2019-04-23T14:31:13.130Z,95853.00
2019-04-23T14:36:09.173Z,95833.00
2019-04-23T14:38:41.663Z,95846.00
2019-04-23T14:41:21.404Z,95839.00
2019-04-23T14:43:49.830Z,95835.00
2019-04-23T14:51:22.940Z,95846.00
2019-04-23T15:01:36.172Z,95844.00
2019-04-23T15:03:49.032Z,95838.00
2019-04-23T15:06:28.046Z,95842.00
2019-04-23T15:11:44.338Z,95856.00
2019-04-23T15:13:56.797Z,95842.00
2019-04-23T15:16:33.544Z,95833.00
2019-04-23T15:19:10.943Z,95829.00
2019-04-23T15:24:13.990Z,95828.00
2019-04-23T15:28:51.239Z,95836.00
2019-04-23T15:31:52.698Z,95824.00
2019-04-23T15:41:57.226Z,95814.00
2019-04-23T15:44:28.179Z,95824.00
2019-04-23T15:46:47.197Z,95807.00
2019-04-23T15:52:00.703Z,95816.00
2019-04-23T15:54:25.384Z,95814.00
2019-04-23T15:59:35.014Z,95814.00
2019-04-23T16:01:41.534Z,95808.00
2019-04-23T16:03:59.107Z,95808.00
2019-04-23T16:06:32.300Z,95804.00
2019-04-23T16:09:15.496Z,95823.00
2019-04-23T16:11:58.065Z,95799.00
2019-04-23T16:14:35.631Z,95819.00
2019-04-23T16:19:52.794Z,95826.00
2019-04-23T16:22:30.392Z,95818.00
2019-04-23T16:24:55.390Z,95821.00
2019-04-23T16:27:17.760Z,95818.00
2019-04-23T16:30:06.225Z,95819.00
2019-04-23T16:35:08.880Z,95816.00
2019-04-23T16:37:26.488Z,95827.00
2019-04-23T16:40:10.266Z,95817.00
2019-04-23T16:42:29.939Z,95825.00
2019-04-23T16:52:34.478Z,95821.00
2019-04-23T16:55:07.048Z,95824.00
2019-04-23T16:57:43.780Z,95809.00
2019-04-23T17:02:45.821Z,95803.00
2019-04-23T17:05:19.510Z,95809.00
2019-04-23T17:07:53.348Z,95809.00
2019-04-23T17:13:02.749Z,95794.00
2019-04-23T17:17:49.587Z,95825.00
2019-04-23T17:20:25.243Z,95814.00
2019-04-23T17:22:57.401Z,95809.00
2019-04-23T17:28:07.205Z,95816.00
2019-04-23T17:30:28.164Z,95812.00
2019-04-23T17:33:13.970Z,95810.00
2019-04-23T17:35:55.620Z,95818.00
2019-04-23T17:38:24.944Z,95824.00
2019-04-23T17:41:13.528Z,95823.00
2019-04-23T17:43:41.587Z,95819.00
2019-04-23T17:46:20.088Z,95816.00
2019-04-23T17:48:47.940Z,95822.00
2019-04-23T17:51:16.565Z,95822.00
2019-04-23T17:56:26.307Z,95827.00
2019-04-23T17:58:51.448Z,95830.00
2019-04-23T18:01:27.928Z,95819.00
2019-04-23T18:06:38.107Z,95831.00
2019-04-23T18:09:08.840Z,95840.00
2019-04-23T18:11:31.594Z,95844.00
2019-04-23T18:14:03.841Z,95837.00
2019-04-23T18:16:41.188Z,95827.00
2019-04-23T18:19:13.153Z,95840.00
2019-04-23T18:22:02.624Z,95828.00
2019-04-23T18:24:24.636Z,95825.00
2019-04-23T18:27:01.242Z,95832.00
2019-04-23T18:29:41.492Z,95842.00
2019-04-23T18:32:13.104Z,95830.00
2019-04-23T18:34:54.158Z,95839.00
2019-04-23T18:37:12.025Z,95833.00
2019-04-23T18:39:46.674Z,95832.00
2019-04-23T18:42:21.481Z,95838.00
2019-04-23T18:44:51.874Z,95842.00
2019-04-23T18:47:24.857Z,95851.00
2019-04-23T18:52:26.050Z,95851.00
2019-04-23T18:54:48.855Z,95849.00
2019-04-23T18:57:12.910Z,95849.00
2019-04-23T18:59:57.106Z,95847.00
2019-04-23T19:05:28.958Z,95850.00
2019-04-23T19:08:11.802Z,95849.00
2019-04-23T19:10:42.229Z,95846.00
2019-04-23T19:13:17.625Z,95861.00
2019-04-23T19:18:18.712Z,95860.00
2019-04-23T19:21:08.036Z,95855.00
2019-04-23T19:23:28.659Z,95852.00
2019-04-23T19:25:49.910Z,95868.00
2019-04-23T19:31:07.496Z,95872.00
2019-04-23T19:38:56.407Z,95865.00
2019-04-23T19:41:20.546Z,95875.00
2019-04-23T19:43:53.089Z,95875.00
2019-04-23T19:46:23.929Z,95876.00
2019-04-23T19:49:07.275Z,95881.00
2019-04-23T19:51:19.292Z,95875.00
2019-04-23T20:03:53.712Z,95877.00
2019-04-23T20:06:55.738Z,95883.00
2019-04-23T20:11:34.722Z,95890.00
2019-04-23T20:13:55.351Z,95876.00
2019-04-23T20:16:38.372Z,95889.00
2019-04-23T20:18:54.637Z,95894.00
2019-04-23T20:24:21.469Z,95888.00
2019-04-23T20:26:29.102Z,95885.00
2019-04-23T20:32:06.013Z,95882.00
2019-04-23T20:34:31.081Z,95872.00
2019-04-23T20:36:53.514Z,95880.00
2019-04-23T20:39:33.209Z,95887.00
2019-04-23T20:44:39.471Z,95893.00
2019-04-23T20:47:08.585Z,95882.00
2019-04-23T20:52:06.557Z,95886.00
2019-04-23T20:54:50.896Z,95884.00
2019-04-23T20:57:43.864Z,95882.00
2019-04-23T21:00:08.671Z,95890.00
2019-04-23T21:03:00.350Z,95895.00
2019-04-23T21:10:27.009Z,95889.00
2019-04-23T21:15:28.030Z,95888.00
2019-04-23T21:17:58.075Z,95900.00
2019-04-23T21:20:35.739Z,95898.00
2019-04-23T21:25:31.054Z,95899.00
2019-04-23T21:28:14.234Z,95894.00
2019-04-23T21:30:49.114Z,95888.00
2019-04-23T21:33:12.317Z,95896.00
2019-04-23T21:36:11.103Z,95901.00
2019-04-23T21:53:56.915Z,95903.00
2019-04-23T21:59:01.507Z,95907.00
2019-04-23T22:04:17.364Z,95908.00
2019-04-23T22:06:43.480Z,95919.00
2019-04-23T22:14:17.472Z,95917.00
2019-04-23T22:17:02.999Z,95917.00
2019-04-23T22:24:42.826Z,95913.00
2019-04-23T22:27:02.790Z,95932.00
2019-04-23T22:29:41.971Z,95922.00
2019-04-23T22:32:04.413Z,95914.00
2019-04-23T22:34:47.123Z,95921.00
2019-04-23T22:39:45.729Z,95930.00
2019-04-23T22:42:35.000Z,95929.00
2019-04-23T22:44:59.076Z,95927.00
2019-04-23T22:47:13.298Z,95913.00
2019-04-23T22:55:02.299Z,95925.00
2019-04-23T22:57:42.734Z,95932.00
2019-04-23T23:00:08.426Z,95947.00
2019-04-23T23:05:37.479Z,95944.00
2019-04-23T23:08:01.187Z,95945.00
2019-04-23T23:10:27.956Z,95951.00
2019-04-23T23:13:05.842Z,95937.00
2019-04-23T23:15:30.270Z,95948.00
2019-04-23T23:18:07.384Z,95941.00
2019-04-23T23:20:36.298Z,95935.00
2019-04-23T23:23:13.149Z,95922.00
2019-04-23T23:28:12.101Z,95935.00
2019-04-23T23:30:45.482Z,95939.00
2019-04-23T23:33:24.596Z,95947.00
2019-04-23T23:35:44.419Z,95941.00
2019-04-23T23:38:16.719Z,95920.00
2019-04-23T23:45:57.273Z,95929.00
2019-04-23T23:48:18.686Z,95936.00
2019-04-23T23:51:00.732Z,95927.00
2019-04-23T23:53:29.721Z,95938.00
2019-04-23T23:56:05.538Z,95929.00
2019-04-23T23:58:36.049Z,95938.00
